Longueuil, Canada
Current Conditions -  °F | °C
As of 1:00 AM on Wednesday 22 Oct 2014 (Local Time) from CYHU Reporting Station
Overcast Overcast  
Wind Chill: 35°   Ceiling: 2200
Heat Index: 43°   Visibility: 9mi
Dew Point: 36°   Wind: 17mph
Humidity: 76%   Direction: 30°NNE
Pressure: 30.18"   Gusts: 24mph
Location:  45.54°N, 73.49°W
Report Text: CYHU 220500Z AUTO 03015G21KT 9SM BKN022 OVC050 06/02 A3018 RMK SLP222
Loading
Personal Weather Stations






























Interactive Weather Map
Tropical Storm Tracking
New forecast layout! Learn more

10-Day Weather Forecast

Advertisements
Track Severe Weather on mobile